createdAt,value
2023-05-25T00:00:29.121Z,20.40
2023-05-25T00:02:56.446Z,20.36
2023-05-25T00:05:27.480Z,20.39
2023-05-25T00:07:57.932Z,20.39
2023-05-25T00:10:24.968Z,20.39
2023-05-25T00:12:51.887Z,20.39
2023-05-25T00:15:18.992Z,20.25
2023-05-25T00:17:49.087Z,20.03
2023-05-25T00:20:16.397Z,20.00
2023-05-25T00:22:47.628Z,19.93
2023-05-25T00:25:14.463Z,19.84
2023-05-25T00:27:41.315Z,19.88
2023-05-25T00:30:08.738Z,19.85
2023-05-25T00:32:36.478Z,19.67
2023-05-25T00:35:03.385Z,19.57
2023-05-25T00:37:30.389Z,19.58
2023-05-25T00:39:57.217Z,19.53
2023-05-25T00:42:24.573Z,19.53
2023-05-25T00:44:51.419Z,19.49
2023-05-25T00:47:18.474Z,19.42
2023-05-25T00:49:46.274Z,19.36
2023-05-25T00:52:14.605Z,19.35
2023-05-25T00:54:48.162Z,19.26
2023-05-25T00:57:18.936Z,19.25
2023-05-25T00:59:51.662Z,19.22
2023-05-25T01:02:19.827Z,19.25
2023-05-25T01:04:54.193Z,19.30
2023-05-25T01:07:27.061Z,19.21
2023-05-25T01:10:07.254Z,19.29
2023-05-25T01:12:38.068Z,19.26
2023-05-25T01:15:06.035Z,19.31
2023-05-25T01:17:33.228Z,19.40
2023-05-25T01:20:09.763Z,19.42
2023-05-25T01:22:51.485Z,19.34
2023-05-25T01:25:59.265Z,19.26
2023-05-25T01:28:30.768Z,19.25
2023-05-25T01:30:58.986Z,19.09
2023-05-25T01:33:27.419Z,19.15
2023-05-25T01:35:54.754Z,19.20
2023-05-25T01:38:21.591Z,19.27
2023-05-25T01:40:48.387Z,19.40
2023-05-25T01:43:15.218Z,19.40
2023-05-25T01:45:43.068Z,19.53
2023-05-25T01:48:27.084Z,19.53
2023-05-25T01:51:05.117Z,19.55
2023-05-25T01:53:37.756Z,19.51
2023-05-25T01:56:11.634Z,19.64
2023-05-25T01:58:42.512Z,19.56
2023-05-25T02:01:10.696Z,19.63
2023-05-25T02:03:42.015Z,19.68
2023-05-25T02:06:10.774Z,19.67
2023-05-25T02:08:37.510Z,19.73
2023-05-25T02:11:04.502Z,19.74
2023-05-25T02:13:31.463Z,19.80
2023-05-25T02:15:58.245Z,19.63
2023-05-25T02:18:25.104Z,19.54
2023-05-25T02:20:54.442Z,19.58
2023-05-25T02:23:21.805Z,19.67
2023-05-25T02:25:48.703Z,19.49
2023-05-25T02:28:16.255Z,19.50
2023-05-25T02:30:43.156Z,19.46
2023-05-25T02:33:10.052Z,19.54
2023-05-25T02:35:37.038Z,19.52
2023-05-25T02:38:03.870Z,19.55
2023-05-25T02:40:31.000Z,19.64
2023-05-25T02:42:57.880Z,19.65
2023-05-25T02:45:24.637Z,19.41
2023-05-25T02:47:51.500Z,19.46
2023-05-25T02:50:19.448Z,19.32
2023-05-25T02:52:49.034Z,19.02
2023-05-25T02:55:18.976Z,18.82
2023-05-25T02:57:46.071Z,18.77
2023-05-25T03:00:27.129Z,18.77
2023-05-25T03:02:54.314Z,18.76
2023-05-25T03:05:22.071Z,18.75
2023-05-25T03:07:49.298Z,18.76
2023-05-25T03:10:16.190Z,18.64
2023-05-25T03:12:43.459Z,18.70
2023-05-25T03:15:13.249Z,18.63
2023-05-25T03:17:40.605Z,18.56
2023-05-25T03:20:10.573Z,18.53
2023-05-25T03:22:41.972Z,18.54
2023-05-25T03:25:12.560Z,18.44
2023-05-25T03:27:40.180Z,18.65
2023-05-25T03:30:09.181Z,18.71
2023-05-25T03:32:36.330Z,18.65
2023-05-25T03:35:05.813Z,18.71
2023-05-25T03:37:33.162Z,18.54
2023-05-25T03:39:59.968Z,18.58
2023-05-25T03:42:26.879Z,18.52
2023-05-25T03:44:54.043Z,18.52
2023-05-25T03:47:20.900Z,18.47
2023-05-25T03:49:47.937Z,18.51
2023-05-25T03:52:14.820Z,18.46
2023-05-25T03:54:41.995Z,18.30
2023-05-25T03:57:09.203Z,18.28
2023-05-25T03:59:36.196Z,18.25
2023-05-25T04:02:03.432Z,18.23
2023-05-25T04:04:30.355Z,18.10
2023-05-25T04:06:58.548Z,18.17
2023-05-25T04:09:25.512Z,18.28
2023-05-25T04:11:52.374Z,18.34
2023-05-25T04:14:21.235Z,18.52
2023-05-25T04:16:48.752Z,18.49
2023-05-25T04:19:16.391Z,18.52
2023-05-25T04:21:43.221Z,18.45
2023-05-25T04:24:11.394Z,18.38
2023-05-25T04:26:39.524Z,18.24
2023-05-25T04:29:07.125Z,18.03
2023-05-25T04:31:56.111Z,18.07
2023-05-25T04:34:33.951Z,17.88
2023-05-25T04:37:08.976Z,17.84
2023-05-25T04:39:36.529Z,18.01
2023-05-25T04:42:04.842Z,18.15
2023-05-25T04:44:33.711Z,18.26
2023-05-25T04:47:01.499Z,18.36
2023-05-25T04:49:34.018Z,18.44
2023-05-25T04:52:01.086Z,18.40
2023-05-25T04:54:30.049Z,18.36
2023-05-25T04:56:59.661Z,18.47
2023-05-25T04:59:26.552Z,18.72
2023-05-25T05:01:53.408Z,18.88
2023-05-25T05:04:20.778Z,18.97
2023-05-25T05:06:48.598Z,18.96
2023-05-25T05:09:19.530Z,19.05
2023-05-25T05:11:47.322Z,19.15
2023-05-25T05:14:14.080Z,19.20
2023-05-25T05:16:43.154Z,19.10
2023-05-25T05:19:10.010Z,19.26
2023-05-25T05:21:37.197Z,19.28
2023-05-25T05:24:06.617Z,19.34
2023-05-25T05:26:44.213Z,19.43
2023-05-25T05:29:18.003Z,19.30
2023-05-25T05:31:46.369Z,19.31
2023-05-25T05:34:13.425Z,19.15
2023-05-25T05:36:55.900Z,19.17
2023-05-25T05:39:24.446Z,19.17
2023-05-25T05:41:51.390Z,19.16
2023-05-25T05:44:26.856Z,19.17
2023-05-25T05:47:01.155Z,19.19
2023-05-25T05:49:30.408Z,19.20
2023-05-25T05:51:59.373Z,19.23
2023-05-25T05:54:28.112Z,19.26
2023-05-25T05:56:56.644Z,19.27
2023-05-25T05:59:24.073Z,19.24
2023-05-25T06:01:51.108Z,19.29
2023-05-25T06:04:19.461Z,19.11
2023-05-25T06:06:46.394Z,18.97
2023-05-25T06:09:13.891Z,19.00
2023-05-25T06:11:40.785Z,19.00
2023-05-25T06:14:09.384Z,18.99
2023-05-25T06:16:36.750Z,18.77
2023-05-25T06:19:04.218Z,18.60
2023-05-25T06:21:31.070Z,18.63
2023-05-25T06:23:57.936Z,18.64
2023-05-25T06:26:25.106Z,18.74
2023-05-25T06:28:52.433Z,18.81
2023-05-25T06:31:19.481Z,18.82
2023-05-25T06:33:46.454Z,18.88
2023-05-25T06:36:15.834Z,18.96
2023-05-25T06:38:44.216Z,19.01
2023-05-25T06:41:15.185Z,19.00
2023-05-25T06:43:42.952Z,18.96
2023-05-25T06:46:18.331Z,18.85
2023-05-25T06:48:46.240Z,18.78
2023-05-25T06:51:13.417Z,18.88
2023-05-25T06:53:40.386Z,18.92
2023-05-25T06:56:07.265Z,19.00
2023-05-25T06:58:34.085Z,19.04
2023-05-25T07:01:01.245Z,19.02
2023-05-25T07:03:28.324Z,19.09
2023-05-25T07:05:55.406Z,19.07
2023-05-25T07:08:22.399Z,19.12
2023-05-25T07:10:50.407Z,19.09
2023-05-25T07:13:17.445Z,19.14
2023-05-25T07:15:44.771Z,19.20
2023-05-25T07:18:12.705Z,19.18
2023-05-25T07:20:43.935Z,19.24
2023-05-25T07:23:11.683Z,19.26
2023-05-25T07:25:39.254Z,19.30
2023-05-25T07:28:06.364Z,19.32
2023-05-25T07:30:33.496Z,19.35
2023-05-25T07:33:01.037Z,19.39
2023-05-25T07:35:28.044Z,19.43
2023-05-25T07:38:02.536Z,19.43
2023-05-25T07:40:29.387Z,19.45
2023-05-25T07:42:57.247Z,19.51
2023-05-25T07:45:24.113Z,19.51
2023-05-25T07:47:51.240Z,19.52
2023-05-25T07:50:18.364Z,19.58
2023-05-25T07:52:45.261Z,19.60
2023-05-25T07:55:12.376Z,19.65
2023-05-25T07:57:39.252Z,19.64
2023-05-25T08:00:08.268Z,19.63
2023-05-25T08:02:41.860Z,19.61
2023-05-25T08:05:10.207Z,19.64
2023-05-25T08:07:37.202Z,19.62
2023-05-25T08:10:04.879Z,19.66
2023-05-25T08:12:46.918Z,19.58
2023-05-25T08:15:15.550Z,19.59
2023-05-25T08:17:42.624Z,19.65
2023-05-25T08:20:10.659Z,19.68
2023-05-25T08:22:37.736Z,19.64
2023-05-25T08:25:05.546Z,19.64
2023-05-25T08:27:35.412Z,19.60
2023-05-25T08:30:03.747Z,19.47
2023-05-25T08:32:30.561Z,19.49
2023-05-25T08:34:57.370Z,19.59
2023-05-25T08:37:25.045Z,19.68
2023-05-25T08:39:51.868Z,19.77
2023-05-25T08:42:18.705Z,19.76
2023-05-25T08:44:46.030Z,19.80
2023-05-25T08:47:15.322Z,19.83
2023-05-25T08:49:44.907Z,20.00
2023-05-25T08:52:15.041Z,20.13
2023-05-25T08:54:48.137Z,20.29
2023-05-25T08:57:24.997Z,20.41
2023-05-25T09:00:06.558Z,20.52
2023-05-25T09:02:51.096Z,20.63
2023-05-25T09:05:18.742Z,20.53
2023-05-25T09:07:46.583Z,20.64
2023-05-25T09:10:15.594Z,20.81
2023-05-25T09:12:43.863Z,20.91
2023-05-25T09:15:12.356Z,21.00
2023-05-25T09:17:41.371Z,20.90
2023-05-25T09:20:13.803Z,21.02
2023-05-25T09:22:44.874Z,21.03
2023-05-25T09:25:13.092Z,21.02
2023-05-25T09:27:41.102Z,21.10
2023-05-25T09:30:08.636Z,21.12
2023-05-25T09:32:36.335Z,21.13
2023-05-25T09:35:11.300Z,21.06
2023-05-25T09:37:40.370Z,21.05
2023-05-25T09:40:09.117Z,20.91
2023-05-25T09:42:36.404Z,20.91
2023-05-25T09:45:04.177Z,20.91
2023-05-25T09:47:31.633Z,20.89
2023-05-25T09:49:59.242Z,20.91
2023-05-25T09:52:26.189Z,20.98
2023-05-25T09:54:53.032Z,21.03
2023-05-25T09:57:21.172Z,21.08
2023-05-25T09:59:48.239Z,21.14
2023-05-25T10:02:15.884Z,21.09
2023-05-25T10:04:42.849Z,21.14
2023-05-25T10:07:10.077Z,21.16
2023-05-25T10:09:41.688Z,21.24
2023-05-25T10:12:09.110Z,21.33
2023-05-25T10:14:38.203Z,21.43
2023-05-25T10:17:09.402Z,21.55
2023-05-25T10:19:46.666Z,21.64
2023-05-25T10:22:19.402Z,21.74
2023-05-25T10:24:57.320Z,21.87
2023-05-25T10:27:29.645Z,21.93
2023-05-25T10:29:57.704Z,22.04
2023-05-25T10:32:25.600Z,22.09
2023-05-25T10:34:53.601Z,22.02
2023-05-25T10:37:21.054Z,22.09
2023-05-25T10:39:49.734Z,22.10
2023-05-25T10:42:18.677Z,22.05
2023-05-25T10:44:46.576Z,21.96
2023-05-25T10:47:15.332Z,21.99
2023-05-25T10:49:59.587Z,22.04
2023-05-25T10:52:30.985Z,22.00
2023-05-25T10:55:01.654Z,21.74
2023-05-25T10:57:28.645Z,21.87
2023-05-25T11:00:06.188Z,21.86
2023-05-25T11:02:51.366Z,21.64
2023-05-25T11:05:27.514Z,21.65
2023-05-25T11:07:55.830Z,21.64
2023-05-25T11:10:44.440Z,21.65
2023-05-25T11:13:35.607Z,21.60
2023-05-25T11:16:36.287Z,21.53
2023-05-25T11:19:03.655Z,21.33
2023-05-25T11:21:32.200Z,21.13
2023-05-25T11:24:04.469Z,21.01
2023-05-25T11:26:34.187Z,21.00
2023-05-25T11:29:11.346Z,20.93
2023-05-25T11:31:43.075Z,20.98
2023-05-25T11:34:12.087Z,21.01
2023-05-25T11:36:39.349Z,21.01
2023-05-25T11:39:17.161Z,20.98
2023-05-25T11:41:51.634Z,20.85
2023-05-25T11:44:29.823Z,20.66
2023-05-25T11:46:58.263Z,20.34
2023-05-25T11:49:26.067Z,20.42
2023-05-25T11:51:54.231Z,20.54
2023-05-25T11:54:25.130Z,20.42
2023-05-25T11:56:52.621Z,20.17
2023-05-25T11:59:20.006Z,20.16
2023-05-25T12:01:59.460Z,19.92
2023-05-25T12:04:26.838Z,19.75
2023-05-25T12:07:01.394Z,19.88
2023-05-25T12:09:28.211Z,19.73
2023-05-25T12:11:55.255Z,19.70
2023-05-25T12:14:23.998Z,19.54
2023-05-25T12:16:51.523Z,19.44
2023-05-25T12:19:19.128Z,19.40
2023-05-25T12:21:46.519Z,19.20
2023-05-25T12:24:13.783Z,19.30
2023-05-25T12:27:16.884Z,19.26
2023-05-25T12:29:49.860Z,19.21
2023-05-25T12:32:16.972Z,19.28
2023-05-25T12:34:43.823Z,19.38
2023-05-25T12:37:21.731Z,19.11
2023-05-25T12:39:49.284Z,19.26
2023-05-25T12:42:17.083Z,19.10
2023-05-25T12:44:46.528Z,19.19
2023-05-25T12:47:20.271Z,19.17
2023-05-25T12:49:51.374Z,19.15
2023-05-25T12:52:38.069Z,19.10
2023-05-25T12:55:21.953Z,19.28
2023-05-25T12:57:55.673Z,19.36
2023-05-25T13:00:33.549Z,19.46
2023-05-25T13:03:01.206Z,19.51
2023-05-25T13:05:31.162Z,19.34
2023-05-25T13:07:58.324Z,19.31
2023-05-25T13:10:26.172Z,19.44
2023-05-25T13:12:55.569Z,19.43
2023-05-25T13:15:22.610Z,19.32
2023-05-25T13:17:50.951Z,19.13
2023-05-25T13:20:23.065Z,19.10
2023-05-25T13:22:52.130Z,19.24
2023-05-25T13:25:19.641Z,19.33
2023-05-25T13:27:50.517Z,19.37
2023-05-25T13:30:18.248Z,19.43
2023-05-25T13:32:45.094Z,19.32
2023-05-25T13:35:19.222Z,19.37
2023-05-25T13:37:46.400Z,19.40
2023-05-25T13:40:13.649Z,19.47
2023-05-25T13:42:41.119Z,19.50
2023-05-25T13:45:08.612Z,19.45
2023-05-25T13:47:35.584Z,19.42
2023-05-25T13:50:02.552Z,19.42
2023-05-25T13:52:29.762Z,19.44
2023-05-25T13:54:56.574Z,19.42
2023-05-25T13:57:23.466Z,19.29
2023-05-25T13:59:50.309Z,19.43
2023-05-25T14:02:17.202Z,19.34
2023-05-25T14:04:44.048Z,19.45
2023-05-25T14:07:11.095Z,19.48
2023-05-25T14:09:37.995Z,19.47
2023-05-25T14:12:05.179Z,19.38
2023-05-25T14:14:33.028Z,19.48
2023-05-25T14:17:01.507Z,19.51
2023-05-25T14:19:28.890Z,19.50
2023-05-25T14:22:11.712Z,19.50
2023-05-25T14:24:39.320Z,19.57
2023-05-25T14:27:07.316Z,19.49
2023-05-25T14:29:34.490Z,19.42
2023-05-25T14:32:02.009Z,19.39
2023-05-25T14:34:29.577Z,19.36
2023-05-25T14:36:56.470Z,19.31
2023-05-25T14:39:23.276Z,19.37
2023-05-25T14:41:50.180Z,19.42
2023-05-25T14:44:17.079Z,19.43
2023-05-25T14:46:43.936Z,19.34
2023-05-25T14:49:10.856Z,19.37
2023-05-25T14:51:38.102Z,19.40
2023-05-25T14:54:07.214Z,19.39
2023-05-25T14:56:34.502Z,19.44
2023-05-25T14:59:01.470Z,19.50
2023-05-25T15:01:29.537Z,19.51
2023-05-25T15:03:57.080Z,19.49
2023-05-25T15:06:24.134Z,19.34
2023-05-25T15:08:51.337Z,19.42
2023-05-25T15:11:18.639Z,19.36
2023-05-25T15:13:45.988Z,19.42
2023-05-25T15:16:19.451Z,19.48
2023-05-25T15:18:46.284Z,19.45
2023-05-25T15:21:13.135Z,19.43
2023-05-25T15:23:39.954Z,19.47
2023-05-25T15:26:08.194Z,19.59
2023-05-25T15:28:35.219Z,19.74
2023-05-25T15:31:03.396Z,19.78
2023-05-25T15:33:44.481Z,19.88
2023-05-25T15:36:16.799Z,19.89
2023-05-25T15:38:44.468Z,19.99
2023-05-25T15:41:14.993Z,19.98
2023-05-25T15:43:42.218Z,20.04
2023-05-25T15:46:09.052Z,20.04
2023-05-25T15:48:35.984Z,19.91
2023-05-25T15:51:02.882Z,19.96
2023-05-25T15:53:30.461Z,19.97
2023-05-25T15:55:57.425Z,19.87
2023-05-25T15:58:24.213Z,19.95
2023-05-25T16:00:51.047Z,19.95
2023-05-25T16:03:17.972Z,19.91
2023-05-25T16:05:44.946Z,19.87
2023-05-25T16:08:13.979Z,19.89
2023-05-25T16:10:40.865Z,19.87
2023-05-25T16:13:07.706Z,19.83
2023-05-25T16:15:34.482Z,19.83
2023-05-25T16:18:01.388Z,19.80
2023-05-25T16:20:28.213Z,19.80
2023-05-25T16:22:55.133Z,19.86
2023-05-25T16:25:22.163Z,19.70
2023-05-25T16:27:48.970Z,19.74
2023-05-25T16:30:15.877Z,19.69
2023-05-25T16:32:42.799Z,19.75
2023-05-25T16:35:09.867Z,19.76
2023-05-25T16:37:36.659Z,19.68
2023-05-25T16:40:03.577Z,19.73
2023-05-25T16:42:30.414Z,19.82
2023-05-25T16:44:57.250Z,19.88
2023-05-25T16:47:24.178Z,19.90
2023-05-25T16:49:51.041Z,19.99
2023-05-25T16:52:17.821Z,20.06
2023-05-25T16:54:44.672Z,20.12
2023-05-25T16:57:12.108Z,20.14
2023-05-25T16:59:39.367Z,20.15
2023-05-25T17:02:06.942Z,20.15
2023-05-25T17:04:33.677Z,20.08
2023-05-25T17:07:00.539Z,20.03
2023-05-25T17:09:27.661Z,20.03
2023-05-25T17:11:59.413Z,20.01
2023-05-25T17:14:26.592Z,19.96
2023-05-25T17:16:53.494Z,19.97
2023-05-25T17:19:20.552Z,20.00
2023-05-25T17:21:47.757Z,19.99
2023-05-25T17:24:14.593Z,19.98
2023-05-25T17:26:41.385Z,19.96
2023-05-25T17:29:08.279Z,19.94
2023-05-25T17:31:35.175Z,19.93
2023-05-25T17:34:02.040Z,19.82
2023-05-25T17:36:28.882Z,19.78
2023-05-25T17:38:55.785Z,19.74
2023-05-25T17:41:22.888Z,19.77
2023-05-25T17:43:49.770Z,19.71
2023-05-25T17:46:17.471Z,19.64
2023-05-25T17:48:44.326Z,19.54
2023-05-25T17:51:11.304Z,19.55
2023-05-25T17:53:38.141Z,19.59
2023-05-25T17:56:05.119Z,19.62
2023-05-25T17:58:32.448Z,19.57
2023-05-25T18:00:59.349Z,19.54
2023-05-25T18:03:26.370Z,19.53
2023-05-25T18:05:53.333Z,19.56
2023-05-25T18:08:21.287Z,19.56
2023-05-25T18:10:50.262Z,19.52
2023-05-25T18:13:17.313Z,19.57
2023-05-25T18:15:44.297Z,19.59
2023-05-25T18:18:11.405Z,19.59
2023-05-25T18:20:38.253Z,19.60
2023-05-25T18:23:08.208Z,19.63
2023-05-25T18:25:35.065Z,19.56
2023-05-25T18:28:01.879Z,19.43
2023-05-25T18:30:28.668Z,19.25
2023-05-25T18:32:55.546Z,19.16
2023-05-25T18:35:22.575Z,19.19
2023-05-25T18:37:49.357Z,19.21
2023-05-25T18:40:16.495Z,19.22
2023-05-25T18:42:43.406Z,19.25
2023-05-25T18:45:10.471Z,19.15
2023-05-25T18:47:37.326Z,19.11
2023-05-25T18:50:04.556Z,19.09
2023-05-25T18:52:31.419Z,19.05
2023-05-25T18:54:58.350Z,19.11
2023-05-25T18:57:25.178Z,19.15
2023-05-25T18:59:52.296Z,19.04
2023-05-25T19:02:19.075Z,18.95
2023-05-25T19:04:45.932Z,18.80
2023-05-25T19:07:12.893Z,18.61
2023-05-25T19:09:39.743Z,18.63
2023-05-25T19:12:09.791Z,18.34
2023-05-25T19:14:36.671Z,18.54
2023-05-25T19:17:03.593Z,18.43
2023-05-25T19:19:30.636Z,18.40
2023-05-25T19:21:57.506Z,18.31
2023-05-25T19:24:24.314Z,18.40
2023-05-25T19:26:51.213Z,18.34
2023-05-25T19:29:18.279Z,18.25
2023-05-25T19:31:45.186Z,18.33
2023-05-25T19:34:12.122Z,18.37
2023-05-25T19:36:38.921Z,18.46
2023-05-25T19:39:05.781Z,18.38
2023-05-25T19:41:32.610Z,18.34
2023-05-25T19:43:59.383Z,18.34
2023-05-25T19:46:26.263Z,18.37
2023-05-25T19:48:53.484Z,18.29
2023-05-25T19:51:20.595Z,18.32
2023-05-25T19:53:49.089Z,18.37
2023-05-25T19:56:15.964Z,18.46
2023-05-25T19:58:42.868Z,18.57
2023-05-25T20:01:09.924Z,18.68
2023-05-25T20:03:36.961Z,18.74
2023-05-25T20:06:03.943Z,18.80
2023-05-25T20:08:30.802Z,18.86
2023-05-25T20:10:57.644Z,18.91
2023-05-25T20:13:24.541Z,18.96
2023-05-25T20:15:51.319Z,18.97
2023-05-25T20:18:18.827Z,18.98
2023-05-25T20:20:48.654Z,19.00
2023-05-25T20:23:15.590Z,19.00
2023-05-25T20:25:42.591Z,19.00
2023-05-25T20:28:09.486Z,19.04
2023-05-25T20:30:36.372Z,19.04
2023-05-25T20:33:03.389Z,19.06
2023-05-25T20:35:30.896Z,19.10
2023-05-25T20:37:57.741Z,19.09
2023-05-25T20:40:26.719Z,19.09
2023-05-25T20:42:53.591Z,19.03
2023-05-25T20:45:20.562Z,19.04
2023-05-25T20:47:47.481Z,19.07
2023-05-25T20:50:14.329Z,19.07
2023-05-25T20:52:41.800Z,19.10
2023-05-25T20:55:09.145Z,19.12
2023-05-25T20:57:35.953Z,19.15
2023-05-25T21:00:04.046Z,19.10
2023-05-25T21:02:31.031Z,19.11
2023-05-25T21:04:57.846Z,19.12
2023-05-25T21:07:24.696Z,19.16
2023-05-25T21:09:51.651Z,19.18
2023-05-25T21:12:18.682Z,19.16
2023-05-25T21:14:45.564Z,19.17
2023-05-25T21:17:14.797Z,19.07
2023-05-25T21:19:41.735Z,19.07
2023-05-25T21:22:08.626Z,19.00
2023-05-25T21:24:35.460Z,18.83
2023-05-25T21:27:02.470Z,18.77
2023-05-25T21:29:29.297Z,18.73
2023-05-25T21:31:56.459Z,18.67
2023-05-25T21:34:23.334Z,18.71
2023-05-25T21:36:50.274Z,18.62
2023-05-25T21:39:18.458Z,18.60
2023-05-25T21:41:45.396Z,18.48
2023-05-25T21:44:12.127Z,18.43
2023-05-25T21:46:39.928Z,18.45
2023-05-25T21:49:06.753Z,18.49
2023-05-25T21:51:33.662Z,18.57
2023-05-25T21:54:00.598Z,18.58
2023-05-25T21:56:27.688Z,18.56
2023-05-25T21:58:54.998Z,18.51
2023-05-25T22:01:24.812Z,18.51
2023-05-25T22:03:51.663Z,18.43
2023-05-25T22:06:18.462Z,18.42
2023-05-25T22:08:45.370Z,18.39
2023-05-25T22:11:12.224Z,18.41
2023-05-25T22:13:39.091Z,18.42
2023-05-25T22:16:06.141Z,18.43
2023-05-25T22:18:33.604Z,18.37
2023-05-25T22:21:00.456Z,18.30
2023-05-25T22:23:27.443Z,18.26
2023-05-25T22:25:54.225Z,18.30
2023-05-25T22:28:22.711Z,18.32
2023-05-25T22:30:49.551Z,18.33
2023-05-25T22:33:16.508Z,18.36
2023-05-25T22:35:43.507Z,18.30
2023-05-25T22:38:10.673Z,18.17
2023-05-25T22:40:37.659Z,18.07
2023-05-25T22:43:12.695Z,17.97
2023-05-25T22:45:40.461Z,17.99
2023-05-25T22:48:08.256Z,17.97
2023-05-25T22:50:35.297Z,17.82
2023-05-25T22:53:02.217Z,17.87
2023-05-25T22:55:29.016Z,17.87
2023-05-25T22:57:56.023Z,17.88
2023-05-25T23:00:23.513Z,17.88
2023-05-25T23:02:50.634Z,17.88
2023-05-25T23:05:17.640Z,17.92
2023-05-25T23:07:44.894Z,17.94
2023-05-25T23:10:11.724Z,17.85
2023-05-25T23:12:38.633Z,17.88
2023-05-25T23:15:08.071Z,17.91
2023-05-25T23:17:35.262Z,17.83
2023-05-25T23:20:02.304Z,17.88
2023-05-25T23:22:29.221Z,17.85
2023-05-25T23:24:56.048Z,17.79
2023-05-25T23:27:22.859Z,17.83
2023-05-25T23:29:49.724Z,17.77
2023-05-25T23:32:16.554Z,17.74
2023-05-25T23:34:43.332Z,17.64
2023-05-25T23:37:10.197Z,17.61
2023-05-25T23:39:37.026Z,17.66
2023-05-25T23:42:04.008Z,17.61
2023-05-25T23:44:30.937Z,17.61
2023-05-25T23:46:57.759Z,17.62
2023-05-25T23:49:24.652Z,17.60
2023-05-25T23:51:51.486Z,17.53
2023-05-25T23:54:18.469Z,17.56
2023-05-25T23:56:45.340Z,17.52
2023-05-25T23:59:15.145Z,17.52
